sensor_id;sensor_type;location;lat;lon;timestamp;P1;durP1;ratioP1;P2;durP2;ratioP2
6135;SDS011;24008;42.664;23.372;2023-10-31T00:00:54;8.23;;;6.17;;
6135;SDS011;24008;42.664;23.372;2023-10-31T00:03:21;11.77;;;6.93;;
6135;SDS011;24008;42.664;23.372;2023-10-31T00:05:48;11.20;;;7.07;;
6135;SDS011;24008;42.664;23.372;2023-10-31T00:08:14;9.00;;;6.20;;
6135;SDS011;24008;42.664;23.372;2023-10-31T00:10:41;9.03;;;6.03;;
6135;SDS011;24008;42.664;23.372;2023-10-31T00:13:10;10.77;;;6.40;;
6135;SDS011;24008;42.664;23.372;2023-10-31T00:15:37;9.47;;;6.10;;
6135;SDS011;24008;42.664;23.372;2023-10-31T00:18:05;10.83;;;6.40;;
6135;SDS011;24008;42.664;23.372;2023-10-31T00:20:32;8.70;;;6.33;;
6135;SDS011;24008;42.664;23.372;2023-10-31T00:22:59;8.87;;;5.87;;
6135;SDS011;24008;42.664;23.372;2023-10-31T00:25:26;10.47;;;6.37;;
6135;SDS011;24008;42.664;23.372;2023-10-31T00:27:53;10.87;;;6.50;;
6135;SDS011;24008;42.664;23.372;2023-10-31T00:30:19;10.97;;;6.43;;
6135;SDS011;24008;42.664;23.372;2023-10-31T00:32:46;11.20;;;6.70;;
6135;SDS011;24008;42.664;23.372;2023-10-31T00:35:15;10.77;;;6.53;;
6135;SDS011;24008;42.664;23.372;2023-10-31T00:37:41;10.70;;;6.63;;
6135;SDS011;24008;42.664;23.372;2023-10-31T00:40:08;12.80;;;6.50;;
6135;SDS011;24008;42.664;23.372;2023-10-31T00:42:36;10.30;;;6.53;;
6135;SDS011;24008;42.664;23.372;2023-10-31T00:45:03;13.87;;;6.67;;
6135;SDS011;24008;42.664;23.372;2023-10-31T00:47:30;7.83;;;5.57;;
6135;SDS011;24008;42.664;23.372;2023-10-31T00:49:57;9.57;;;6.77;;
6135;SDS011;24008;42.664;23.372;2023-10-31T00:52:25;9.67;;;6.10;;
6135;SDS011;24008;42.664;23.372;2023-10-31T00:54:52;7.77;;;6.00;;
6135;SDS011;24008;42.664;23.372;2023-10-31T00:57:19;9.30;;;5.80;;
6135;SDS011;24008;42.664;23.372;2023-10-31T00:59:45;9.73;;;6.33;;
6135;SDS011;24008;42.664;23.372;2023-10-31T01:02:12;11.53;;;6.60;;
6135;SDS011;24008;42.664;23.372;2023-10-31T01:04:39;11.33;;;6.60;;
6135;SDS011;24008;42.664;23.372;2023-10-31T01:07:06;11.17;;;6.10;;
6135;SDS011;24008;42.664;23.372;2023-10-31T01:09:38;9.10;;;5.63;;
6135;SDS011;24008;42.664;23.372;2023-10-31T01:12:05;9.60;;;5.17;;
6135;SDS011;24008;42.664;23.372;2023-10-31T01:14:32;7.47;;;5.50;;
6135;SDS011;24008;42.664;23.372;2023-10-31T01:17:00;11.33;;;5.50;;
6135;SDS011;24008;42.664;23.372;2023-10-31T01:19:26;11.40;;;6.37;;
6135;SDS011;24008;42.664;23.372;2023-10-31T01:22:12;11.00;;;5.73;;
6135;SDS011;24008;42.664;23.372;2023-10-31T01:24:40;9.70;;;6.00;;
6135;SDS011;24008;42.664;23.372;2023-10-31T01:27:07;7.77;;;5.30;;
6135;SDS011;24008;42.664;23.372;2023-10-31T01:29:34;11.80;;;6.10;;
6135;SDS011;24008;42.664;23.372;2023-10-31T01:32:00;11.10;;;5.70;;
6135;SDS011;24008;42.664;23.372;2023-10-31T01:34:27;9.00;;;5.70;;
6135;SDS011;24008;42.664;23.372;2023-10-31T01:36:54;9.83;;;5.33;;
6135;SDS011;24008;42.664;23.372;2023-10-31T01:39:20;7.63;;;5.73;;
6135;SDS011;24008;42.664;23.372;2023-10-31T01:41:49;9.63;;;5.63;;
6135;SDS011;24008;42.664;23.372;2023-10-31T01:44:15;9.87;;;6.20;;
6135;SDS011;24008;42.664;23.372;2023-10-31T01:46:42;11.53;;;5.77;;
6135;SDS011;24008;42.664;23.372;2023-10-31T01:49:09;9.97;;;6.10;;
6135;SDS011;24008;42.664;23.372;2023-10-31T01:51:35;11.60;;;6.30;;
6135;SDS011;24008;42.664;23.372;2023-10-31T01:54:03;9.63;;;6.33;;
6135;SDS011;24008;42.664;23.372;2023-10-31T01:56:30;8.73;;;5.80;;
6135;SDS011;24008;42.664;23.372;2023-10-31T01:58:59;8.43;;;6.33;;
6135;SDS011;24008;42.664;23.372;2023-10-31T02:01:25;10.67;;;6.80;;
6135;SDS011;24008;42.664;23.372;2023-10-31T02:03:53;7.73;;;6.33;;
6135;SDS011;24008;42.664;23.372;2023-10-31T02:06:20;9.43;;;6.40;;
6135;SDS011;24008;42.664;23.372;2023-10-31T02:08:47;7.80;;;6.03;;
6135;SDS011;24008;42.664;23.372;2023-10-31T02:11:14;7.80;;;5.73;;
6135;SDS011;24008;42.664;23.372;2023-10-31T02:13:41;9.90;;;5.97;;
6135;SDS011;24008;42.664;23.372;2023-10-31T02:16:09;11.27;;;6.30;;
6135;SDS011;24008;42.664;23.372;2023-10-31T02:18:36;8.50;;;6.03;;
6135;SDS011;24008;42.664;23.372;2023-10-31T02:21:03;11.00;;;5.93;;
6135;SDS011;24008;42.664;23.372;2023-10-31T02:23:31;8.83;;;5.70;;
6135;SDS011;24008;42.664;23.372;2023-10-31T02:25:58;11.10;;;5.93;;
6135;SDS011;24008;42.664;23.372;2023-10-31T02:28:25;7.63;;;5.17;;
6135;SDS011;24008;42.664;23.372;2023-10-31T02:30:53;7.50;;;5.70;;
6135;SDS011;24008;42.664;23.372;2023-10-31T02:33:19;8.13;;;5.27;;
6135;SDS011;24008;42.664;23.372;2023-10-31T02:35:46;8.77;;;5.90;;
6135;SDS011;24008;42.664;23.372;2023-10-31T02:38:13;7.40;;;5.87;;
6135;SDS011;24008;42.664;23.372;2023-10-31T02:40:41;6.83;;;5.33;;
6135;SDS011;24008;42.664;23.372;2023-10-31T02:43:08;8.43;;;4.90;;
6135;SDS011;24008;42.664;23.372;2023-10-31T02:45:35;7.47;;;5.07;;
6135;SDS011;24008;42.664;23.372;2023-10-31T02:48:02;7.97;;;5.23;;
6135;SDS011;24008;42.664;23.372;2023-10-31T02:50:28;10.30;;;5.40;;
6135;SDS011;24008;42.664;23.372;2023-10-31T02:52:55;8.93;;;5.40;;
6135;SDS011;24008;42.664;23.372;2023-10-31T02:55:22;10.27;;;5.90;;
6135;SDS011;24008;42.664;23.372;2023-10-31T02:57:50;6.93;;;5.10;;
6135;SDS011;24008;42.664;23.372;2023-10-31T03:00:17;6.33;;;4.90;;
6135;SDS011;24008;42.664;23.372;2023-10-31T03:02:45;8.30;;;5.37;;
6135;SDS011;24008;42.664;23.372;2023-10-31T03:05:11;7.07;;;5.57;;
6135;SDS011;24008;42.664;23.372;2023-10-31T03:07:38;9.90;;;5.67;;
6135;SDS011;24008;42.664;23.372;2023-10-31T03:10:05;9.27;;;5.03;;
6135;SDS011;24008;42.664;23.372;2023-10-31T03:12:33;8.67;;;5.40;;
6135;SDS011;24008;42.664;23.372;2023-10-31T03:15:01;9.43;;;5.83;;
6135;SDS011;24008;42.664;23.372;2023-10-31T03:17:29;6.57;;;5.50;;
6135;SDS011;24008;42.664;23.372;2023-10-31T03:19:55;8.83;;;6.07;;
6135;SDS011;24008;42.664;23.372;2023-10-31T03:22:22;8.23;;;5.97;;
6135;SDS011;24008;42.664;23.372;2023-10-31T03:24:49;10.90;;;6.17;;
6135;SDS011;24008;42.664;23.372;2023-10-31T03:27:15;10.37;;;6.87;;
6135;SDS011;24008;42.664;23.372;2023-10-31T03:29:42;10.50;;;6.00;;
6135;SDS011;24008;42.664;23.372;2023-10-31T03:32:11;9.60;;;6.10;;
6135;SDS011;24008;42.664;23.372;2023-10-31T03:34:38;8.83;;;6.17;;
6135;SDS011;24008;42.664;23.372;2023-10-31T03:37:05;8.30;;;5.80;;
6135;SDS011;24008;42.664;23.372;2023-10-31T03:39:32;7.17;;;5.43;;
6135;SDS011;24008;42.664;23.372;2023-10-31T03:41:59;8.73;;;6.27;;
6135;SDS011;24008;42.664;23.372;2023-10-31T03:44:26;8.87;;;6.03;;
6135;SDS011;24008;42.664;23.372;2023-10-31T03:46:53;10.37;;;6.13;;
6135;SDS011;24008;42.664;23.372;2023-10-31T03:49:21;11.70;;;7.03;;
6135;SDS011;24008;42.664;23.372;2023-10-31T03:51:47;10.17;;;5.80;;
6135;SDS011;24008;42.664;23.372;2023-10-31T03:54:14;8.80;;;6.00;;
6135;SDS011;24008;42.664;23.372;2023-10-31T03:56:41;10.20;;;6.60;;
6135;SDS011;24008;42.664;23.372;2023-10-31T03:59:09;11.80;;;7.37;;
6135;SDS011;24008;42.664;23.372;2023-10-31T04:01:35;7.77;;;6.30;;
6135;SDS011;24008;42.664;23.372;2023-10-31T04:04:02;8.50;;;6.30;;
6135;SDS011;24008;42.664;23.372;2023-10-31T04:06:31;11.17;;;6.90;;
6135;SDS011;24008;42.664;23.372;2023-10-31T04:08:57;13.40;;;7.40;;
6135;SDS011;24008;42.664;23.372;2023-10-31T04:11:24;9.03;;;6.77;;
6135;SDS011;24008;42.664;23.372;2023-10-31T04:13:51;10.37;;;7.37;;
6135;SDS011;24008;42.664;23.372;2023-10-31T04:16:17;9.50;;;6.37;;
6135;SDS011;24008;42.664;23.372;2023-10-31T04:18:44;9.73;;;7.00;;
6135;SDS011;24008;42.664;23.372;2023-10-31T04:21:11;11.13;;;6.70;;
6135;SDS011;24008;42.664;23.372;2023-10-31T04:23:39;13.00;;;7.53;;
6135;SDS011;24008;42.664;23.372;2023-10-31T04:26:06;10.47;;;7.17;;
6135;SDS011;24008;42.664;23.372;2023-10-31T04:28:32;11.53;;;7.30;;
6135;SDS011;24008;42.664;23.372;2023-10-31T04:30:59;10.47;;;6.43;;
6135;SDS011;24008;42.664;23.372;2023-10-31T04:33:26;10.00;;;6.87;;
6135;SDS011;24008;42.664;23.372;2023-10-31T04:35:53;10.40;;;6.97;;
6135;SDS011;24008;42.664;23.372;2023-10-31T04:38:19;9.80;;;7.17;;
6135;SDS011;24008;42.664;23.372;2023-10-31T04:40:48;11.90;;;7.07;;
6135;SDS011;24008;42.664;23.372;2023-10-31T04:43:14;9.03;;;6.27;;
6135;SDS011;24008;42.664;23.372;2023-10-31T04:45:41;9.00;;;7.00;;
6135;SDS011;24008;42.664;23.372;2023-10-31T04:48:08;10.90;;;6.57;;
6135;SDS011;24008;42.664;23.372;2023-10-31T04:50:35;11.87;;;7.13;;
6135;SDS011;24008;42.664;23.372;2023-10-31T04:53:02;11.63;;;6.97;;
6135;SDS011;24008;42.664;23.372;2023-10-31T04:55:28;13.07;;;7.27;;
6135;SDS011;24008;42.664;23.372;2023-10-31T04:57:57;9.77;;;6.97;;
6135;SDS011;24008;42.664;23.372;2023-10-31T05:00:23;8.33;;;6.83;;
6135;SDS011;24008;42.664;23.372;2023-10-31T05:02:50;10.73;;;7.40;;
6135;SDS011;24008;42.664;23.372;2023-10-31T05:05:17;11.80;;;7.60;;
6135;SDS011;24008;42.664;23.372;2023-10-31T05:07:44;15.50;;;7.70;;
6135;SDS011;24008;42.664;23.372;2023-10-31T05:10:11;13.83;;;8.17;;
6135;SDS011;24008;42.664;23.372;2023-10-31T05:12:38;12.87;;;8.10;;
6135;SDS011;24008;42.664;23.372;2023-10-31T05:15:07;9.07;;;7.27;;
6135;SDS011;24008;42.664;23.372;2023-10-31T05:17:34;10.93;;;7.20;;
6135;SDS011;24008;42.664;23.372;2023-10-31T05:20:01;13.13;;;8.50;;
6135;SDS011;24008;42.664;23.372;2023-10-31T05:22:27;11.30;;;7.90;;
6135;SDS011;24008;42.664;23.372;2023-10-31T05:24:54;11.33;;;7.73;;
6135;SDS011;24008;42.664;23.372;2023-10-31T05:27:21;11.40;;;7.50;;
6135;SDS011;24008;42.664;23.372;2023-10-31T05:29:48;16.97;;;8.80;;
6135;SDS011;24008;42.664;23.372;2023-10-31T05:32:16;13.40;;;8.17;;
6135;SDS011;24008;42.664;23.372;2023-10-31T05:34:43;16.47;;;7.53;;
6135;SDS011;24008;42.664;23.372;2023-10-31T05:37:09;11.53;;;7.30;;
6135;SDS011;24008;42.664;23.372;2023-10-31T05:39:36;12.17;;;7.40;;
6135;SDS011;24008;42.664;23.372;2023-10-31T05:42:03;11.13;;;7.90;;
6135;SDS011;24008;42.664;23.372;2023-10-31T05:44:30;13.87;;;7.90;;
6135;SDS011;24008;42.664;23.372;2023-10-31T05:46:56;11.67;;;7.50;;
6135;SDS011;24008;42.664;23.372;2023-10-31T05:49:25;13.10;;;8.20;;
6135;SDS011;24008;42.664;23.372;2023-10-31T05:51:52;11.13;;;8.47;;
6135;SDS011;24008;42.664;23.372;2023-10-31T05:54:19;11.60;;;7.63;;
6135;SDS011;24008;42.664;23.372;2023-10-31T05:56:46;19.50;;;8.60;;
6135;SDS011;24008;42.664;23.372;2023-10-31T05:59:13;11.97;;;7.40;;
6135;SDS011;24008;42.664;23.372;2023-10-31T06:01:39;18.67;;;9.23;;
6135;SDS011;24008;42.664;23.372;2023-10-31T06:04:06;13.93;;;9.87;;
6135;SDS011;24008;42.664;23.372;2023-10-31T06:06:36;17.37;;;11.77;;
6135;SDS011;24008;42.664;23.372;2023-10-31T06:09:04;26.00;;;13.37;;
6135;SDS011;24008;42.664;23.372;2023-10-31T06:11:31;24.43;;;14.57;;
6135;SDS011;24008;42.664;23.372;2023-10-31T06:13:58;23.03;;;13.53;;
6135;SDS011;24008;42.664;23.372;2023-10-31T06:16:25;25.57;;;12.87;;
6135;SDS011;24008;42.664;23.372;2023-10-31T06:18:52;19.47;;;12.40;;
6135;SDS011;24008;42.664;23.372;2023-10-31T06:21:19;21.37;;;13.63;;
6135;SDS011;24008;42.664;23.372;2023-10-31T06:23:47;19.70;;;12.87;;
6135;SDS011;24008;42.664;23.372;2023-10-31T06:26:13;22.43;;;13.43;;
6135;SDS011;24008;42.664;23.372;2023-10-31T06:28:40;20.97;;;13.43;;
6135;SDS011;24008;42.664;23.372;2023-10-31T06:31:07;23.27;;;11.90;;
6135;SDS011;24008;42.664;23.372;2023-10-31T06:33:34;18.10;;;11.00;;
6135;SDS011;24008;42.664;23.372;2023-10-31T06:36:01;17.73;;;9.50;;
6135;SDS011;24008;42.664;23.372;2023-10-31T06:38:28;17.53;;;10.53;;
6135;SDS011;24008;42.664;23.372;2023-10-31T06:40:56;16.90;;;11.00;;
6135;SDS011;24008;42.664;23.372;2023-10-31T06:43:23;22.43;;;12.10;;
6135;SDS011;24008;42.664;23.372;2023-10-31T06:45:50;19.57;;;12.67;;
6135;SDS011;24008;42.664;23.372;2023-10-31T06:48:16;20.27;;;12.57;;
6135;SDS011;24008;42.664;23.372;2023-10-31T06:50:43;22.13;;;12.50;;
6135;SDS011;24008;42.664;23.372;2023-10-31T06:53:10;21.13;;;13.37;;
6135;SDS011;24008;42.664;23.372;2023-10-31T06:55:36;30.57;;;16.53;;
6135;SDS011;24008;42.664;23.372;2023-10-31T06:58:05;26.33;;;14.00;;
6135;SDS011;24008;42.664;23.372;2023-10-31T07:00:31;21.57;;;12.07;;
6135;SDS011;24008;42.664;23.372;2023-10-31T07:02:58;20.40;;;10.10;;
6135;SDS011;24008;42.664;23.372;2023-10-31T07:05:30;14.23;;;9.67;;
6135;SDS011;24008;42.664;23.372;2023-10-31T07:07:56;15.63;;;9.70;;
6135;SDS011;24008;42.664;23.372;2023-10-31T07:10:23;18.87;;;9.67;;
6135;SDS011;24008;42.664;23.372;2023-10-31T07:12:50;18.73;;;11.00;;
6135;SDS011;24008;42.664;23.372;2023-10-31T07:15:18;17.67;;;9.57;;
6135;SDS011;24008;42.664;23.372;2023-10-31T07:17:46;15.57;;;9.73;;
6135;SDS011;24008;42.664;23.372;2023-10-31T07:20:13;18.37;;;10.30;;
6135;SDS011;24008;42.664;23.372;2023-10-31T07:22:39;19.20;;;10.88;;
6135;SDS011;24008;42.664;23.372;2023-10-31T07:25:06;20.63;;;10.27;;
6135;SDS011;24008;42.664;23.372;2023-10-31T07:27:34;14.23;;;9.85;;
6135;SDS011;24008;42.664;23.372;2023-10-31T07:30:01;16.35;;;9.70;;
6135;SDS011;24008;42.664;23.372;2023-10-31T07:32:30;12.30;;;8.60;;
6135;SDS011;24008;42.664;23.372;2023-10-31T07:34:57;13.75;;;9.10;;
6135;SDS011;24008;42.664;23.372;2023-10-31T07:37:24;14.15;;;8.38;;
6135;SDS011;24008;42.664;23.372;2023-10-31T07:39:51;18.15;;;9.05;;
6135;SDS011;24008;42.664;23.372;2023-10-31T07:42:17;11.60;;;7.63;;
6135;SDS011;24008;42.664;23.372;2023-10-31T07:44:44;12.80;;;7.30;;
6135;SDS011;24008;42.664;23.372;2023-10-31T07:47:11;14.23;;;8.02;;
6135;SDS011;24008;42.664;23.372;2023-10-31T07:49:39;16.60;;;8.85;;
6135;SDS011;24008;42.664;23.372;2023-10-31T07:52:06;14.75;;;8.27;;
6135;SDS011;24008;42.664;23.372;2023-10-31T07:54:33;16.38;;;7.50;;
6135;SDS011;24008;42.664;23.372;2023-10-31T07:57:00;12.13;;;7.72;;
6135;SDS011;24008;42.664;23.372;2023-10-31T07:59:26;10.10;;;7.05;;
6135;SDS011;24008;42.664;23.372;2023-10-31T08:01:53;12.07;;;7.38;;
6135;SDS011;24008;42.664;23.372;2023-10-31T08:04:20;14.32;;;7.20;;
6135;SDS011;24008;42.664;23.372;2023-10-31T08:06:48;14.35;;;7.13;;
6135;SDS011;24008;42.664;23.372;2023-10-31T08:09:15;13.88;;;7.55;;
6135;SDS011;24008;42.664;23.372;2023-10-31T08:11:42;9.15;;;6.13;;
6135;SDS011;24008;42.664;23.372;2023-10-31T08:14:09;8.90;;;5.95;;
6135;SDS011;24008;42.664;23.372;2023-10-31T08:16:36;10.15;;;6.00;;
6135;SDS011;24008;42.664;23.372;2023-10-31T08:19:03;13.25;;;6.20;;
6135;SDS011;24008;42.664;23.372;2023-10-31T08:21:30;10.20;;;6.03;;
6135;SDS011;24008;42.664;23.372;2023-10-31T08:24:01;10.30;;;6.05;;
6135;SDS011;24008;42.664;23.372;2023-10-31T08:26:29;14.02;;;7.20;;
6135;SDS011;24008;42.664;23.372;2023-10-31T08:28:56;11.10;;;6.78;;
6135;SDS011;24008;42.664;23.372;2023-10-31T08:31:22;11.60;;;6.53;;
6135;SDS011;24008;42.664;23.372;2023-10-31T08:33:49;9.50;;;6.22;;
6135;SDS011;24008;42.664;23.372;2023-10-31T08:36:16;10.40;;;5.90;;
6135;SDS011;24008;42.664;23.372;2023-10-31T08:38:43;11.20;;;6.03;;
6135;SDS011;24008;42.664;23.372;2023-10-31T08:41:11;12.40;;;6.50;;
6135;SDS011;24008;42.664;23.372;2023-10-31T08:43:44;9.73;;;6.35;;
6135;SDS011;24008;42.664;23.372;2023-10-31T08:46:10;11.32;;;6.10;;
6135;SDS011;24008;42.664;23.372;2023-10-31T08:48:38;10.35;;;6.30;;
6135;SDS011;24008;42.664;23.372;2023-10-31T08:51:05;11.07;;;6.05;;
6135;SDS011;24008;42.664;23.372;2023-10-31T08:53:31;11.85;;;6.40;;
6135;SDS011;24008;42.664;23.372;2023-10-31T08:55:58;9.85;;;5.75;;
6135;SDS011;24008;42.664;23.372;2023-10-31T08:58:27;10.30;;;7.10;;
6135;SDS011;24008;42.664;23.372;2023-10-31T09:00:54;10.73;;;7.03;;
6135;SDS011;24008;42.664;23.372;2023-10-31T09:03:24;11.45;;;5.88;;
6135;SDS011;24008;42.664;23.372;2023-10-31T09:05:52;9.70;;;6.15;;
6135;SDS011;24008;42.664;23.372;2023-10-31T09:08:18;8.70;;;5.70;;
6135;SDS011;24008;42.664;23.372;2023-10-31T09:10:45;13.02;;;5.93;;
6135;SDS011;24008;42.664;23.372;2023-10-31T09:13:12;12.32;;;6.32;;
6135;SDS011;24008;42.664;23.372;2023-10-31T09:15:40;9.43;;;5.53;;
6135;SDS011;24008;42.664;23.372;2023-10-31T09:18:07;14.25;;;7.20;;
6135;SDS011;24008;42.664;23.372;2023-10-31T09:20:34;16.08;;;7.75;;
6135;SDS011;24008;42.664;23.372;2023-10-31T09:23:01;10.13;;;7.68;;
6135;SDS011;24008;42.664;23.372;2023-10-31T09:25:28;13.65;;;7.93;;
6135;SDS011;24008;42.664;23.372;2023-10-31T09:27:56;18.50;;;9.25;;
6135;SDS011;24008;42.664;23.372;2023-10-31T09:30:27;14.27;;;8.75;;
6135;SDS011;24008;42.664;23.372;2023-10-31T09:32:55;16.17;;;8.63;;
6135;SDS011;24008;42.664;23.372;2023-10-31T09:35:24;13.98;;;8.65;;
6135;SDS011;24008;42.664;23.372;2023-10-31T09:37:51;14.93;;;8.25;;
6135;SDS011;24008;42.664;23.372;2023-10-31T09:40:18;14.93;;;7.68;;
6135;SDS011;24008;42.664;23.372;2023-10-31T09:42:45;16.08;;;7.10;;
6135;SDS011;24008;42.664;23.372;2023-10-31T09:45:12;13.32;;;7.18;;
6135;SDS011;24008;42.664;23.372;2023-10-31T09:47:40;11.20;;;6.60;;
6135;SDS011;24008;42.664;23.372;2023-10-31T09:50:09;12.48;;;6.43;;
6135;SDS011;24008;42.664;23.372;2023-10-31T09:52:37;13.95;;;7.20;;
6135;SDS011;24008;42.664;23.372;2023-10-31T09:55:04;12.40;;;6.50;;
6135;SDS011;24008;42.664;23.372;2023-10-31T09:57:31;15.48;;;7.20;;
6135;SDS011;24008;42.664;23.372;2023-10-31T09:59:59;12.32;;;6.25;;
6135;SDS011;24008;42.664;23.372;2023-10-31T10:02:25;17.48;;;7.30;;
6135;SDS011;24008;42.664;23.372;2023-10-31T10:04:52;10.63;;;6.78;;
6135;SDS011;24008;42.664;23.372;2023-10-31T10:07:20;13.23;;;7.00;;
6135;SDS011;24008;42.664;23.372;2023-10-31T10:09:47;13.45;;;6.82;;
6135;SDS011;24008;42.664;23.372;2023-10-31T10:12:13;12.35;;;6.53;;
6135;SDS011;24008;42.664;23.372;2023-10-31T10:14:44;12.20;;;6.20;;
6135;SDS011;24008;42.664;23.372;2023-10-31T10:17:16;17.17;;;6.22;;
6135;SDS011;24008;42.664;23.372;2023-10-31T10:19:43;8.52;;;5.50;;
6135;SDS011;24008;42.664;23.372;2023-10-31T10:22:10;12.40;;;5.95;;
6135;SDS011;24008;42.664;23.372;2023-10-31T10:24:42;16.75;;;6.35;;
6135;SDS011;24008;42.664;23.372;2023-10-31T10:27:09;13.32;;;6.28;;
6135;SDS011;24008;42.664;23.372;2023-10-31T10:29:36;12.25;;;6.53;;
6135;SDS011;24008;42.664;23.372;2023-10-31T10:32:04;14.75;;;6.85;;
6135;SDS011;24008;42.664;23.372;2023-10-31T10:34:34;18.70;;;7.97;;
6135;SDS011;24008;42.664;23.372;2023-10-31T10:37:01;11.02;;;6.47;;
6135;SDS011;24008;42.664;23.372;2023-10-31T10:39:32;12.32;;;6.25;;
6135;SDS011;24008;42.664;23.372;2023-10-31T10:42:02;17.55;;;6.55;;
6135;SDS011;24008;42.664;23.372;2023-10-31T10:44:36;12.07;;;5.72;;
6135;SDS011;24008;42.664;23.372;2023-10-31T10:47:03;13.00;;;5.00;;
6135;SDS011;24008;42.664;23.372;2023-10-31T10:49:32;10.55;;;4.72;;
6135;SDS011;24008;42.664;23.372;2023-10-31T10:52:01;7.50;;;4.22;;
6135;SDS011;24008;42.664;23.372;2023-10-31T10:54:42;13.60;;;5.18;;
6135;SDS011;24008;42.664;23.372;2023-10-31T10:57:15;11.60;;;4.80;;
6135;SDS011;24008;42.664;23.372;2023-10-31T10:59:50;14.65;;;5.90;;
6135;SDS011;24008;42.664;23.372;2023-10-31T11:02:22;13.88;;;5.40;;
6135;SDS011;24008;42.664;23.372;2023-10-31T11:04:49;9.43;;;4.70;;
6135;SDS011;24008;42.664;23.372;2023-10-31T11:07:17;7.80;;;4.45;;
6135;SDS011;24008;42.664;23.372;2023-10-31T11:09:47;11.85;;;4.97;;
6135;SDS011;24008;42.664;23.372;2023-10-31T11:12:17;11.80;;;4.88;;
6135;SDS011;24008;42.664;23.372;2023-10-31T11:14:47;16.20;;;4.82;;
6135;SDS011;24008;42.664;23.372;2023-10-31T11:17:16;10.50;;;5.25;;
6135;SDS011;24008;42.664;23.372;2023-10-31T11:19:50;13.30;;;5.28;;
6135;SDS011;24008;42.664;23.372;2023-10-31T11:22:17;14.73;;;5.30;;
6135;SDS011;24008;42.664;23.372;2023-10-31T11:24:45;11.57;;;5.43;;
6135;SDS011;24008;42.664;23.372;2023-10-31T11:27:12;13.43;;;6.18;;
6135;SDS011;24008;42.664;23.372;2023-10-31T11:29:40;14.02;;;4.95;;
6135;SDS011;24008;42.664;23.372;2023-10-31T11:32:08;10.50;;;5.40;;
6135;SDS011;24008;42.664;23.372;2023-10-31T11:34:36;13.60;;;5.18;;
6135;SDS011;24008;42.664;23.372;2023-10-31T11:37:18;12.80;;;5.20;;
6135;SDS011;24008;42.664;23.372;2023-10-31T11:42:49;16.80;;;5.28;;
6135;SDS011;24008;42.664;23.372;2023-10-31T11:45:33;14.45;;;5.30;;
6135;SDS011;24008;42.664;23.372;2023-10-31T11:48:01;11.10;;;5.03;;
6135;SDS011;24008;42.664;23.372;2023-10-31T11:50:29;13.70;;;4.82;;
6135;SDS011;24008;42.664;23.372;2023-10-31T11:53:00;14.30;;;5.07;;
6135;SDS011;24008;42.664;23.372;2023-10-31T11:55:29;10.57;;;4.75;;
6135;SDS011;24008;42.664;23.372;2023-10-31T11:57:59;13.90;;;4.85;;
6135;SDS011;24008;42.664;23.372;2023-10-31T12:00:38;15.55;;;5.00;;
6135;SDS011;24008;42.664;23.372;2023-10-31T12:03:05;16.25;;;4.80;;
6135;SDS011;24008;42.664;23.372;2023-10-31T12:05:32;12.02;;;4.75;;
6135;SDS011;24008;42.664;23.372;2023-10-31T12:07:59;9.95;;;4.82;;
6135;SDS011;24008;42.664;23.372;2023-10-31T12:10:26;9.10;;;4.20;;
6135;SDS011;24008;42.664;23.372;2023-10-31T12:12:56;8.27;;;4.60;;
6135;SDS011;24008;42.664;23.372;2023-10-31T12:15:23;12.35;;;5.00;;
6135;SDS011;24008;42.664;23.372;2023-10-31T12:17:52;13.00;;;4.80;;
6135;SDS011;24008;42.664;23.372;2023-10-31T12:20:23;20.55;;;4.93;;
6135;SDS011;24008;42.664;23.372;2023-10-31T12:23:00;10.43;;;4.47;;
6135;SDS011;24008;42.664;23.372;2023-10-31T12:25:28;10.85;;;4.78;;
6135;SDS011;24008;42.664;23.372;2023-10-31T12:27:55;8.27;;;4.70;;
6135;SDS011;24008;42.664;23.372;2023-10-31T12:30:21;13.50;;;4.68;;
6135;SDS011;24008;42.664;23.372;2023-10-31T12:32:54;14.20;;;4.85;;
6135;SDS011;24008;42.664;23.372;2023-10-31T12:35:22;13.55;;;4.60;;
6135;SDS011;24008;42.664;23.372;2023-10-31T12:37:50;16.02;;;4.30;;
6135;SDS011;24008;42.664;23.372;2023-10-31T12:40:18;9.95;;;4.45;;
6135;SDS011;24008;42.664;23.372;2023-10-31T12:42:46;9.07;;;4.50;;
6135;SDS011;24008;42.664;23.372;2023-10-31T12:45:15;11.25;;;4.38;;
6135;SDS011;24008;42.664;23.372;2023-10-31T12:47:43;10.45;;;4.80;;
6135;SDS011;24008;42.664;23.372;2023-10-31T12:50:13;14.23;;;4.35;;
6135;SDS011;24008;42.664;23.372;2023-10-31T12:52:50;13.93;;;5.30;;
6135;SDS011;24008;42.664;23.372;2023-10-31T12:55:20;17.58;;;5.20;;
6135;SDS011;24008;42.664;23.372;2023-10-31T12:57:49;8.13;;;4.60;;
6135;SDS011;24008;42.664;23.372;2023-10-31T13:00:17;17.05;;;4.40;;
6135;SDS011;24008;42.664;23.372;2023-10-31T13:02:50;14.95;;;5.03;;
6135;SDS011;24008;42.664;23.372;2023-10-31T13:05:19;10.48;;;4.72;;
6135;SDS011;24008;42.664;23.372;2023-10-31T13:07:52;10.88;;;5.10;;
6135;SDS011;24008;42.664;23.372;2023-10-31T13:10:21;10.60;;;4.93;;
6135;SDS011;24008;42.664;23.372;2023-10-31T13:12:49;9.75;;;4.25;;
6135;SDS011;24008;42.664;23.372;2023-10-31T13:15:16;13.88;;;5.32;;
6135;SDS011;24008;42.664;23.372;2023-10-31T13:17:44;12.07;;;4.80;;
6135;SDS011;24008;42.664;23.372;2023-10-31T13:20:11;10.07;;;4.82;;
6135;SDS011;24008;42.664;23.372;2023-10-31T13:22:41;9.18;;;5.25;;
6135;SDS011;24008;42.664;23.372;2023-10-31T13:25:09;11.95;;;5.25;;
6135;SDS011;24008;42.664;23.372;2023-10-31T13:27:36;12.43;;;5.00;;
6135;SDS011;24008;42.664;23.372;2023-10-31T13:30:06;13.35;;;4.95;;
6135;SDS011;24008;42.664;23.372;2023-10-31T13:32:34;7.20;;;4.68;;
6135;SDS011;24008;42.664;23.372;2023-10-31T13:35:01;10.75;;;4.90;;
6135;SDS011;24008;42.664;23.372;2023-10-31T13:37:28;16.88;;;5.43;;
6135;SDS011;24008;42.664;23.372;2023-10-31T13:39:56;10.25;;;5.43;;
6135;SDS011;24008;42.664;23.372;2023-10-31T13:42:23;12.82;;;5.55;;
6135;SDS011;24008;42.664;23.372;2023-10-31T13:44:51;21.13;;;5.60;;
6135;SDS011;24008;42.664;23.372;2023-10-31T13:47:18;16.55;;;6.25;;
6135;SDS011;24008;42.664;23.372;2023-10-31T13:49:44;11.75;;;4.95;;
6135;SDS011;24008;42.664;23.372;2023-10-31T13:52:11;12.85;;;4.78;;
6135;SDS011;24008;42.664;23.372;2023-10-31T13:54:38;8.88;;;5.07;;
6135;SDS011;24008;42.664;23.372;2023-10-31T13:57:06;15.93;;;5.07;;
6135;SDS011;24008;42.664;23.372;2023-10-31T13:59:34;9.45;;;5.00;;
6135;SDS011;24008;42.664;23.372;2023-10-31T14:02:01;10.18;;;4.90;;
6135;SDS011;24008;42.664;23.372;2023-10-31T14:04:27;15.93;;;5.03;;
6135;SDS011;24008;42.664;23.372;2023-10-31T14:06:54;12.75;;;5.30;;
6135;SDS011;24008;42.664;23.372;2023-10-31T14:09:21;12.57;;;5.10;;
6135;SDS011;24008;42.664;23.372;2023-10-31T14:11:48;13.10;;;6.30;;
6135;SDS011;24008;42.664;23.372;2023-10-31T14:14:16;14.30;;;5.43;;
6135;SDS011;24008;42.664;23.372;2023-10-31T14:16:44;14.43;;;5.10;;
6135;SDS011;24008;42.664;23.372;2023-10-31T14:19:11;12.75;;;5.97;;
6135;SDS011;24008;42.664;23.372;2023-10-31T14:21:40;12.23;;;5.90;;
6135;SDS011;24008;42.664;23.372;2023-10-31T14:24:07;11.88;;;5.88;;
6135;SDS011;24008;42.664;23.372;2023-10-31T14:26:34;23.25;;;5.95;;
6135;SDS011;24008;42.664;23.372;2023-10-31T14:29:02;14.25;;;5.40;;
6135;SDS011;24008;42.664;23.372;2023-10-31T14:31:30;14.38;;;6.15;;
6135;SDS011;24008;42.664;23.372;2023-10-31T14:33:57;12.45;;;5.85;;
6135;SDS011;24008;42.664;23.372;2023-10-31T14:36:24;20.37;;;5.87;;
6135;SDS011;24008;42.664;23.372;2023-10-31T14:38:51;16.40;;;8.52;;
6135;SDS011;24008;42.664;23.372;2023-10-31T14:41:17;16.70;;;7.25;;
6135;SDS011;24008;42.664;23.372;2023-10-31T14:43:44;13.47;;;6.47;;